sensor_id;sensor_type;location;lat;lon;timestamp;P1;durP1;ratioP1;P2;durP2;ratioP2
71910;SDS011;59783;52.232;5.170;2023-04-24T00:01:12;23.10;;;20.70;;
71910;SDS011;59783;52.232;5.170;2023-04-24T00:03:37;24.63;;;21.90;;
71910;SDS011;59783;52.232;5.170;2023-04-24T00:06:03;25.73;;;22.25;;
71910;SDS011;59783;52.232;5.170;2023-04-24T00:08:30;23.98;;;21.60;;
71910;SDS011;59783;52.232;5.170;2023-04-24T00:10:55;23.80;;;21.47;;
71910;SDS011;59783;52.232;5.170;2023-04-24T00:13:20;25.13;;;22.63;;
71910;SDS011;59783;52.232;5.170;2023-04-24T00:15:45;24.87;;;22.67;;
71910;SDS011;59783;52.232;5.170;2023-04-24T00:18:10;30.40;;;27.60;;
71910;SDS011;59783;52.232;5.170;2023-04-24T00:20:36;26.77;;;24.42;;
71910;SDS011;59783;52.232;5.170;2023-04-24T00:23:01;25.92;;;23.58;;
71910;SDS011;59783;52.232;5.170;2023-04-24T00:25:26;24.23;;;22.00;;
71910;SDS011;59783;52.232;5.170;2023-04-24T00:27:51;25.40;;;23.10;;
71910;SDS011;59783;52.232;5.170;2023-04-24T00:30:17;23.43;;;21.23;;
71910;SDS011;59783;52.232;5.170;2023-04-24T00:32:42;23.57;;;21.37;;
71910;SDS011;59783;52.232;5.170;2023-04-24T00:35:07;24.53;;;22.33;;
71910;SDS011;59783;52.232;5.170;2023-04-24T00:37:32;23.08;;;20.98;;
71910;SDS011;59783;52.232;5.170;2023-04-24T00:39:57;22.93;;;20.83;;
71910;SDS011;59783;52.232;5.170;2023-04-24T00:42:23;24.03;;;21.83;;
71910;SDS011;59783;52.232;5.170;2023-04-24T00:44:48;23.45;;;21.17;;
71910;SDS011;59783;52.232;5.170;2023-04-24T00:47:13;25.77;;;23.47;;
71910;SDS011;59783;52.232;5.170;2023-04-24T00:49:39;27.05;;;24.52;;
71910;SDS011;59783;52.232;5.170;2023-04-24T00:52:04;25.52;;;23.08;;
71910;SDS011;59783;52.232;5.170;2023-04-24T00:54:32;25.92;;;23.52;;
71910;SDS011;59783;52.232;5.170;2023-04-24T00:56:57;25.00;;;22.55;;
71910;SDS011;59783;52.232;5.170;2023-04-24T00:59:23;24.97;;;22.37;;
71910;SDS011;59783;52.232;5.170;2023-04-24T01:01:48;24.10;;;21.70;;
71910;SDS011;59783;52.232;5.170;2023-04-24T01:04:13;26.77;;;24.20;;
71910;SDS011;59783;52.232;5.170;2023-04-24T01:06:39;25.98;;;22.02;;
71910;SDS011;59783;52.232;5.170;2023-04-24T01:09:05;25.70;;;23.20;;
71910;SDS011;59783;52.232;5.170;2023-04-24T01:11:30;25.85;;;23.27;;
71910;SDS011;59783;52.232;5.170;2023-04-24T01:13:56;24.70;;;22.40;;
71910;SDS011;59783;52.232;5.170;2023-04-24T01:16:21;24.95;;;22.60;;
71910;SDS011;59783;52.232;5.170;2023-04-24T01:18:46;31.93;;;29.13;;
71910;SDS011;59783;52.232;5.170;2023-04-24T01:21:13;24.65;;;22.35;;
71910;SDS011;59783;52.232;5.170;2023-04-24T01:23:38;25.67;;;23.38;;
71910;SDS011;59783;52.232;5.170;2023-04-24T01:26:03;26.90;;;24.33;;
71910;SDS011;59783;52.232;5.170;2023-04-24T01:28:29;26.88;;;24.55;;
71910;SDS011;59783;52.232;5.170;2023-04-24T01:30:54;25.73;;;23.02;;
71910;SDS011;59783;52.232;5.170;2023-04-24T01:33:20;25.50;;;23.20;;
71910;SDS011;59783;52.232;5.170;2023-04-24T01:35:46;25.58;;;22.85;;
71910;SDS011;59783;52.232;5.170;2023-04-24T01:38:11;24.40;;;21.70;;
71910;SDS011;59783;52.232;5.170;2023-04-24T01:40:36;30.52;;;27.92;;
71910;SDS011;59783;52.232;5.170;2023-04-24T01:43:02;23.60;;;21.40;;
71910;SDS011;59783;52.232;5.170;2023-04-24T01:45:27;24.63;;;22.20;;
71910;SDS011;59783;52.232;5.170;2023-04-24T01:47:52;23.07;;;20.67;;
71910;SDS011;59783;52.232;5.170;2023-04-24T01:50:18;23.53;;;21.30;;
71910;SDS011;59783;52.232;5.170;2023-04-24T01:52:43;23.58;;;21.23;;
71910;SDS011;59783;52.232;5.170;2023-04-24T01:55:09;23.52;;;21.30;;
71910;SDS011;59783;52.232;5.170;2023-04-24T01:57:34;24.38;;;21.98;;
71910;SDS011;59783;52.232;5.170;2023-04-24T02:00:00;26.20;;;23.88;;
71910;SDS011;59783;52.232;5.170;2023-04-24T02:02:25;24.47;;;22.07;;
71910;SDS011;59783;52.232;5.170;2023-04-24T02:04:52;23.67;;;21.38;;
71910;SDS011;59783;52.232;5.170;2023-04-24T02:07:17;25.77;;;23.20;;
71910;SDS011;59783;52.232;5.170;2023-04-24T02:09:43;25.10;;;22.63;;
71910;SDS011;59783;52.232;5.170;2023-04-24T02:12:08;24.80;;;22.17;;
71910;SDS011;59783;52.232;5.170;2023-04-24T02:14:33;25.53;;;23.13;;
71910;SDS011;59783;52.232;5.170;2023-04-24T02:16:58;23.63;;;21.30;;
71910;SDS011;59783;52.232;5.170;2023-04-24T02:19:23;29.47;;;26.83;;
71910;SDS011;59783;52.232;5.170;2023-04-24T02:21:49;25.92;;;23.60;;
71910;SDS011;59783;52.232;5.170;2023-04-24T02:24:14;22.90;;;20.50;;
71910;SDS011;59783;52.232;5.170;2023-04-24T02:26:39;22.60;;;20.43;;
71910;SDS011;59783;52.232;5.170;2023-04-24T02:29:04;25.10;;;22.70;;
71910;SDS011;59783;52.232;5.170;2023-04-24T02:31:29;24.25;;;22.05;;
71910;SDS011;59783;52.232;5.170;2023-04-24T02:33:55;24.30;;;21.87;;
71910;SDS011;59783;52.232;5.170;2023-04-24T02:36:20;26.57;;;23.93;;
71910;SDS011;59783;52.232;5.170;2023-04-24T02:38:46;23.70;;;21.55;;
71910;SDS011;59783;52.232;5.170;2023-04-24T02:41:11;23.97;;;21.67;;
71910;SDS011;59783;52.232;5.170;2023-04-24T02:43:36;25.33;;;22.93;;
71910;SDS011;59783;52.232;5.170;2023-04-24T02:46:01;27.70;;;25.20;;
71910;SDS011;59783;52.232;5.170;2023-04-24T02:48:26;25.00;;;22.60;;
71910;SDS011;59783;52.232;5.170;2023-04-24T02:50:52;25.90;;;23.58;;
71910;SDS011;59783;52.232;5.170;2023-04-24T02:53:17;24.83;;;22.63;;
71910;SDS011;59783;52.232;5.170;2023-04-24T02:55:43;23.77;;;21.57;;
71910;SDS011;59783;52.232;5.170;2023-04-24T02:58:08;23.88;;;21.48;;
71910;SDS011;59783;52.232;5.170;2023-04-24T03:00:33;25.60;;;23.20;;
71910;SDS011;59783;52.232;5.170;2023-04-24T03:02:58;25.08;;;22.85;;
71910;SDS011;59783;52.232;5.170;2023-04-24T03:05:24;25.87;;;23.53;;
71910;SDS011;59783;52.232;5.170;2023-04-24T03:07:49;29.60;;;26.70;;
71910;SDS011;59783;52.232;5.170;2023-04-24T03:10:14;27.05;;;24.48;;
71910;SDS011;59783;52.232;5.170;2023-04-24T03:12:39;30.27;;;27.37;;
71910;SDS011;59783;52.232;5.170;2023-04-24T03:15:05;28.30;;;25.80;;
71910;SDS011;59783;52.232;5.170;2023-04-24T03:17:30;26.10;;;23.60;;
71910;SDS011;59783;52.232;5.170;2023-04-24T03:19:55;26.53;;;23.93;;
71910;SDS011;59783;52.232;5.170;2023-04-24T03:22:20;24.80;;;22.40;;
71910;SDS011;59783;52.232;5.170;2023-04-24T03:24:46;27.20;;;24.50;;
71910;SDS011;59783;52.232;5.170;2023-04-24T03:27:11;25.77;;;23.37;;
71910;SDS011;59783;52.232;5.170;2023-04-24T03:29:36;27.07;;;24.37;;
71910;SDS011;59783;52.232;5.170;2023-04-24T03:32:01;27.40;;;24.90;;
71910;SDS011;59783;52.232;5.170;2023-04-24T03:34:26;25.77;;;23.37;;
71910;SDS011;59783;52.232;5.170;2023-04-24T03:36:51;25.77;;;23.23;;
71910;SDS011;59783;52.232;5.170;2023-04-24T03:39:17;25.92;;;23.45;;
71910;SDS011;59783;52.232;5.170;2023-04-24T03:41:42;25.93;;;23.53;;
71910;SDS011;59783;52.232;5.170;2023-04-24T03:44:08;25.35;;;22.92;;
71910;SDS011;59783;52.232;5.170;2023-04-24T03:46:33;27.20;;;24.70;;
71910;SDS011;59783;52.232;5.170;2023-04-24T03:48:58;25.57;;;23.03;;
71910;SDS011;59783;52.232;5.170;2023-04-24T03:51:23;24.27;;;21.87;;
71910;SDS011;59783;52.232;5.170;2023-04-24T03:53:49;26.63;;;24.17;;
71910;SDS011;59783;52.232;5.170;2023-04-24T03:56:14;35.42;;;32.17;;
71910;SDS011;59783;52.232;5.170;2023-04-24T03:58:39;26.52;;;23.83;;
71910;SDS011;59783;52.232;5.170;2023-04-24T04:01:04;24.33;;;22.00;;
71910;SDS011;59783;52.232;5.170;2023-04-24T04:03:30;25.17;;;22.90;;
71910;SDS011;59783;52.232;5.170;2023-04-24T04:05:55;24.13;;;21.87;;
71910;SDS011;59783;52.232;5.170;2023-04-24T04:08:20;23.83;;;21.70;;
71910;SDS011;59783;52.232;5.170;2023-04-24T04:10:46;26.43;;;24.10;;
71910;SDS011;59783;52.232;5.170;2023-04-24T04:13:11;25.50;;;23.20;;
71910;SDS011;59783;52.232;5.170;2023-04-24T04:15:36;24.80;;;22.40;;
71910;SDS011;59783;52.232;5.170;2023-04-24T04:18:01;27.00;;;24.47;;
71910;SDS011;59783;52.232;5.170;2023-04-24T04:20:26;28.05;;;25.20;;
71910;SDS011;59783;52.232;5.170;2023-04-24T04:22:51;26.57;;;24.07;;
71910;SDS011;59783;52.232;5.170;2023-04-24T04:25:17;29.60;;;27.08;;
71910;SDS011;59783;52.232;5.170;2023-04-24T04:27:44;25.80;;;23.33;;
71910;SDS011;59783;52.232;5.170;2023-04-24T04:30:09;24.90;;;22.60;;
71910;SDS011;59783;52.232;5.170;2023-04-24T04:32:34;25.98;;;23.55;;
71910;SDS011;59783;52.232;5.170;2023-04-24T04:35:00;26.38;;;23.67;;
71910;SDS011;59783;52.232;5.170;2023-04-24T04:37:29;28.83;;;26.20;;
71910;SDS011;59783;52.232;5.170;2023-04-24T04:39:54;25.90;;;23.30;;
71910;SDS011;59783;52.232;5.170;2023-04-24T04:42:19;27.15;;;24.60;;
71910;SDS011;59783;52.232;5.170;2023-04-24T04:44:45;32.77;;;29.97;;
71910;SDS011;59783;52.232;5.170;2023-04-24T04:47:10;24.00;;;21.60;;
71910;SDS011;59783;52.232;5.170;2023-04-24T04:49:35;26.43;;;24.00;;
71910;SDS011;59783;52.232;5.170;2023-04-24T04:52:00;27.40;;;24.70;;
71910;SDS011;59783;52.232;5.170;2023-04-24T04:54:26;29.27;;;26.57;;
71910;SDS011;59783;52.232;5.170;2023-04-24T04:56:51;27.87;;;25.37;;
71910;SDS011;59783;52.232;5.170;2023-04-24T04:59:16;25.63;;;23.00;;
71910;SDS011;59783;52.232;5.170;2023-04-24T05:01:41;25.53;;;23.07;;
71910;SDS011;59783;52.232;5.170;2023-04-24T05:04:06;26.90;;;24.10;;
71910;SDS011;59783;52.232;5.170;2023-04-24T05:06:32;34.20;;;31.10;;
71910;SDS011;59783;52.232;5.170;2023-04-24T05:08:57;25.47;;;22.97;;
71910;SDS011;59783;52.232;5.170;2023-04-24T05:11:22;25.43;;;22.90;;
71910;SDS011;59783;52.232;5.170;2023-04-24T05:13:47;26.70;;;24.08;;
71910;SDS011;59783;52.232;5.170;2023-04-24T05:16:13;34.00;;;31.00;;
71910;SDS011;59783;52.232;5.170;2023-04-24T05:18:38;26.87;;;24.27;;
71910;SDS011;59783;52.232;5.170;2023-04-24T05:21:03;28.33;;;25.70;;
71910;SDS011;59783;52.232;5.170;2023-04-24T05:23:28;27.75;;;25.23;;
71910;SDS011;59783;52.232;5.170;2023-04-24T05:25:53;27.67;;;25.20;;
71910;SDS011;59783;52.232;5.170;2023-04-24T05:28:19;25.98;;;23.58;;
71910;SDS011;59783;52.232;5.170;2023-04-24T05:30:44;28.85;;;26.25;;
71910;SDS011;59783;52.232;5.170;2023-04-24T05:33:10;29.55;;;26.73;;
71910;SDS011;59783;52.232;5.170;2023-04-24T05:35:35;26.37;;;23.97;;
71910;SDS011;59783;52.232;5.170;2023-04-24T05:38:00;25.53;;;23.13;;
71910;SDS011;59783;52.232;5.170;2023-04-24T05:40:26;31.92;;;26.88;;
71910;SDS011;59783;52.232;5.170;2023-04-24T05:42:51;29.45;;;26.50;;
71910;SDS011;59783;52.232;5.170;2023-04-24T05:45:16;30.87;;;27.90;;
71910;SDS011;59783;52.232;5.170;2023-04-24T05:47:42;26.70;;;24.20;;
71910;SDS011;59783;52.232;5.170;2023-04-24T05:50:08;30.95;;;28.00;;
71910;SDS011;59783;52.232;5.170;2023-04-24T05:52:34;28.30;;;25.73;;
71910;SDS011;59783;52.232;5.170;2023-04-24T05:54:59;28.10;;;25.40;;
71910;SDS011;59783;52.232;5.170;2023-04-24T05:57:24;26.53;;;23.97;;
71910;SDS011;59783;52.232;5.170;2023-04-24T05:59:49;27.25;;;24.58;;
71910;SDS011;59783;52.232;5.170;2023-04-24T06:02:14;24.53;;;22.13;;
71910;SDS011;59783;52.232;5.170;2023-04-24T06:04:40;26.83;;;24.33;;
71910;SDS011;59783;52.232;5.170;2023-04-24T06:07:05;30.73;;;27.97;;
71910;SDS011;59783;52.232;5.170;2023-04-24T06:09:31;27.45;;;24.65;;
71910;SDS011;59783;52.232;5.170;2023-04-24T06:11:56;34.07;;;28.17;;
71910;SDS011;59783;52.232;5.170;2023-04-24T06:14:22;37.78;;;30.27;;
71910;SDS011;59783;52.232;5.170;2023-04-24T06:16:47;44.07;;;38.10;;
71910;SDS011;59783;52.232;5.170;2023-04-24T06:19:13;45.08;;;31.73;;
71910;SDS011;59783;52.232;5.170;2023-04-24T06:21:38;49.83;;;34.37;;
71910;SDS011;59783;52.232;5.170;2023-04-24T06:24:03;50.67;;;35.25;;
71910;SDS011;59783;52.232;5.170;2023-04-24T06:26:29;56.65;;;42.85;;
71910;SDS011;59783;52.232;5.170;2023-04-24T06:28:54;51.17;;;33.03;;
71910;SDS011;59783;52.232;5.170;2023-04-24T06:31:20;45.75;;;34.95;;
71910;SDS011;59783;52.232;5.170;2023-04-24T06:33:45;53.88;;;43.97;;
71910;SDS011;59783;52.232;5.170;2023-04-24T06:36:12;48.97;;;32.10;;
71910;SDS011;59783;52.232;5.170;2023-04-24T06:38:37;50.72;;;34.38;;
71910;SDS011;59783;52.232;5.170;2023-04-24T06:41:02;47.67;;;35.37;;
71910;SDS011;59783;52.232;5.170;2023-04-24T06:43:29;47.47;;;35.35;;
71910;SDS011;59783;52.232;5.170;2023-04-24T06:45:55;50.30;;;33.93;;
71910;SDS011;59783;52.232;5.170;2023-04-24T06:48:20;49.65;;;32.63;;
71910;SDS011;59783;52.232;5.170;2023-04-24T06:50:46;40.03;;;30.47;;
71910;SDS011;59783;52.232;5.170;2023-04-24T06:53:11;44.17;;;31.13;;
71910;SDS011;59783;52.232;5.170;2023-04-24T06:55:39;40.28;;;31.25;;
71910;SDS011;59783;52.232;5.170;2023-04-24T06:58:04;46.47;;;32.10;;
71910;SDS011;59783;52.232;5.170;2023-04-24T07:00:30;44.33;;;29.17;;
71910;SDS011;59783;52.232;5.170;2023-04-24T07:02:56;44.60;;;30.40;;
71910;SDS011;59783;52.232;5.170;2023-04-24T07:05:22;39.70;;;33.40;;
71910;SDS011;59783;52.232;5.170;2023-04-24T07:07:48;43.55;;;31.02;;
71910;SDS011;59783;52.232;5.170;2023-04-24T07:10:14;46.70;;;32.80;;
71910;SDS011;59783;52.232;5.170;2023-04-24T07:12:39;44.77;;;33.63;;
71910;SDS011;59783;52.232;5.170;2023-04-24T07:15:05;40.63;;;30.20;;
71910;SDS011;59783;52.232;5.170;2023-04-24T07:17:30;42.47;;;31.88;;
71910;SDS011;59783;52.232;5.170;2023-04-24T07:19:56;44.40;;;30.53;;
71910;SDS011;59783;52.232;5.170;2023-04-24T07:22:21;39.47;;;30.70;;
71910;SDS011;59783;52.232;5.170;2023-04-24T07:24:46;38.08;;;28.90;;
71910;SDS011;59783;52.232;5.170;2023-04-24T07:27:12;43.63;;;29.30;;
71910;SDS011;59783;52.232;5.170;2023-04-24T07:29:37;41.43;;;29.40;;
71910;SDS011;59783;52.232;5.170;2023-04-24T07:32:03;42.72;;;30.88;;
71910;SDS011;59783;52.232;5.170;2023-04-24T07:34:28;38.83;;;31.17;;
71910;SDS011;59783;52.232;5.170;2023-04-24T07:36:53;43.37;;;34.20;;
71910;SDS011;59783;52.232;5.170;2023-04-24T07:39:18;39.65;;;29.73;;
71910;SDS011;59783;52.232;5.170;2023-04-24T07:41:44;40.27;;;29.00;;
71910;SDS011;59783;52.232;5.170;2023-04-24T07:44:09;36.20;;;30.27;;
71910;SDS011;59783;52.232;5.170;2023-04-24T07:46:34;34.25;;;27.33;;
71910;SDS011;59783;52.232;5.170;2023-04-24T07:49:00;37.35;;;27.20;;
71910;SDS011;59783;52.232;5.170;2023-04-24T07:51:26;38.85;;;29.38;;
71910;SDS011;59783;52.232;5.170;2023-04-24T07:53:52;33.15;;;29.30;;
71910;SDS011;59783;52.232;5.170;2023-04-24T07:56:17;33.22;;;26.08;;
71910;SDS011;59783;52.232;5.170;2023-04-24T07:58:43;36.15;;;26.35;;
71910;SDS011;59783;52.232;5.170;2023-04-24T08:01:08;41.87;;;27.50;;
71910;SDS011;59783;52.232;5.170;2023-04-24T08:03:33;38.30;;;26.10;;
71910;SDS011;59783;52.232;5.170;2023-04-24T08:05:58;38.67;;;26.57;;
71910;SDS011;59783;52.232;5.170;2023-04-24T08:08:24;34.42;;;28.40;;
71910;SDS011;59783;52.232;5.170;2023-04-24T08:10:49;31.75;;;27.17;;
71910;SDS011;59783;52.232;5.170;2023-04-24T08:13:15;34.13;;;30.65;;
71910;SDS011;59783;52.232;5.170;2023-04-24T08:15:40;38.88;;;28.02;;
71910;SDS011;59783;52.232;5.170;2023-04-24T08:18:05;33.63;;;29.60;;
71910;SDS011;59783;52.232;5.170;2023-04-24T08:20:30;37.58;;;27.88;;
71910;SDS011;59783;52.232;5.170;2023-04-24T08:22:56;36.97;;;29.42;;
71910;SDS011;59783;52.232;5.170;2023-04-24T08:25:21;38.20;;;28.40;;
71910;SDS011;59783;52.232;5.170;2023-04-24T08:27:48;40.50;;;29.63;;
71910;SDS011;59783;52.232;5.170;2023-04-24T08:30:13;32.90;;;26.10;;
71910;SDS011;59783;52.232;5.170;2023-04-24T08:32:39;34.15;;;26.60;;
71910;SDS011;59783;52.232;5.170;2023-04-24T08:35:04;30.23;;;26.52;;
71910;SDS011;59783;52.232;5.170;2023-04-24T08:37:29;36.38;;;27.92;;
71910;SDS011;59783;52.232;5.170;2023-04-24T08:39:55;35.35;;;26.10;;
71910;SDS011;59783;52.232;5.170;2023-04-24T08:42:21;33.25;;;25.70;;
71910;SDS011;59783;52.232;5.170;2023-04-24T08:44:48;26.80;;;22.67;;
71910;SDS011;59783;52.232;5.170;2023-04-24T08:47:13;32.90;;;22.33;;
71910;SDS011;59783;52.232;5.170;2023-04-24T08:49:39;34.28;;;23.90;;
71910;SDS011;59783;52.232;5.170;2023-04-24T08:52:05;27.27;;;24.03;;
71910;SDS011;59783;52.232;5.170;2023-04-24T08:54:31;33.65;;;29.50;;
71910;SDS011;59783;52.232;5.170;2023-04-24T08:56:58;29.30;;;25.23;;
71910;SDS011;59783;52.232;5.170;2023-04-24T08:59:25;31.52;;;28.25;;
71910;SDS011;59783;52.232;5.170;2023-04-24T09:01:51;35.10;;;22.65;;
71910;SDS011;59783;52.232;5.170;2023-04-24T09:04:16;30.52;;;23.58;;
71910;SDS011;59783;52.232;5.170;2023-04-24T09:06:44;32.47;;;25.27;;
71910;SDS011;59783;52.232;5.170;2023-04-24T09:09:10;30.88;;;23.58;;
71910;SDS011;59783;52.232;5.170;2023-04-24T09:11:36;34.22;;;26.10;;
71910;SDS011;59783;52.232;5.170;2023-04-24T09:14:01;26.47;;;23.20;;
71910;SDS011;59783;52.232;5.170;2023-04-24T09:16:27;33.13;;;23.93;;
71910;SDS011;59783;52.232;5.170;2023-04-24T09:18:52;30.80;;;24.02;;
71910;SDS011;59783;52.232;5.170;2023-04-24T09:21:19;31.27;;;26.30;;
71910;SDS011;59783;52.232;5.170;2023-04-24T09:23:45;26.92;;;22.60;;
71910;SDS011;59783;52.232;5.170;2023-04-24T09:26:10;30.35;;;22.48;;
71910;SDS011;59783;52.232;5.170;2023-04-24T09:28:36;30.90;;;23.60;;
71910;SDS011;59783;52.232;5.170;2023-04-24T09:31:03;30.17;;;24.92;;
71910;SDS011;59783;52.232;5.170;2023-04-24T09:33:28;29.08;;;24.05;;
71910;SDS011;59783;52.232;5.170;2023-04-24T09:35:54;25.50;;;22.88;;
71910;SDS011;59783;52.232;5.170;2023-04-24T09:38:19;26.38;;;22.40;;
71910;SDS011;59783;52.232;5.170;2023-04-24T09:40:45;25.00;;;22.15;;
71910;SDS011;59783;52.232;5.170;2023-04-24T09:43:10;30.87;;;23.03;;
71910;SDS011;59783;52.232;5.170;2023-04-24T09:45:36;29.13;;;22.35;;
71910;SDS011;59783;52.232;5.170;2023-04-24T09:48:02;31.17;;;24.00;;
71910;SDS011;59783;52.232;5.170;2023-04-24T09:50:27;25.50;;;21.97;;
71910;SDS011;59783;52.232;5.170;2023-04-24T09:52:57;28.23;;;22.90;;
71910;SDS011;59783;52.232;5.170;2023-04-24T09:55:23;27.67;;;23.35;;
71910;SDS011;59783;52.232;5.170;2023-04-24T10:00:13;29.38;;;26.30;;
71910;SDS011;59783;52.232;5.170;2023-04-24T10:02:42;23.13;;;20.80;;
71910;SDS011;59783;52.232;5.170;2023-04-24T10:05:09;27.67;;;21.50;;
71910;SDS011;59783;52.232;5.170;2023-04-24T10:07:37;24.35;;;21.17;;
71910;SDS011;59783;52.232;5.170;2023-04-24T10:10:02;24.50;;;21.92;;
71910;SDS011;59783;52.232;5.170;2023-04-24T10:12:27;27.40;;;22.08;;
71910;SDS011;59783;52.232;5.170;2023-04-24T10:14:53;24.40;;;21.77;;
71910;SDS011;59783;52.232;5.170;2023-04-24T10:17:19;25.52;;;22.63;;
71910;SDS011;59783;52.232;5.170;2023-04-24T10:19:46;23.88;;;20.77;;
71910;SDS011;59783;52.232;5.170;2023-04-24T10:22:11;24.40;;;22.02;;
71910;SDS011;59783;52.232;5.170;2023-04-24T10:24:37;23.50;;;20.98;;
71910;SDS011;59783;52.232;5.170;2023-04-24T10:27:03;26.00;;;22.40;;
71910;SDS011;59783;52.232;5.170;2023-04-24T10:29:28;22.37;;;20.03;;
71910;SDS011;59783;52.232;5.170;2023-04-24T10:31:56;23.05;;;20.27;;
71910;SDS011;59783;52.232;5.170;2023-04-24T10:34:21;23.10;;;20.57;;
71910;SDS011;59783;52.232;5.170;2023-04-24T10:36:51;24.55;;;21.52;;
71910;SDS011;59783;52.232;5.170;2023-04-24T10:39:16;26.38;;;19.48;;
71910;SDS011;59783;52.232;5.170;2023-04-24T10:41:41;22.52;;;19.38;;
71910;SDS011;59783;52.232;5.170;2023-04-24T10:44:07;25.70;;;19.67;;
71910;SDS011;59783;52.232;5.170;2023-04-24T10:46:33;28.63;;;25.77;;
71910;SDS011;59783;52.232;5.170;2023-04-24T10:48:58;22.80;;;20.43;;
71910;SDS011;59783;52.232;5.170;2023-04-24T10:51:24;25.20;;;21.63;;
71910;SDS011;59783;52.232;5.170;2023-04-24T10:53:50;23.05;;;19.27;;
71910;SDS011;59783;52.232;5.170;2023-04-24T10:56:15;24.30;;;21.25;;
71910;SDS011;59783;52.232;5.170;2023-04-24T10:58:41;25.00;;;20.15;;
71910;SDS011;59783;52.232;5.170;2023-04-24T11:01:10;23.73;;;20.23;;
71910;SDS011;59783;52.232;5.170;2023-04-24T11:03:51;26.17;;;20.10;;
71910;SDS011;59783;52.232;5.170;2023-04-24T11:06:18;26.45;;;21.23;;
71910;SDS011;59783;52.232;5.170;2023-04-24T11:08:53;24.98;;;20.23;;
71910;SDS011;59783;52.232;5.170;2023-04-24T11:11:23;23.60;;;21.08;;
71910;SDS011;59783;52.232;5.170;2023-04-24T11:16:25;24.35;;;20.98;;
71910;SDS011;59783;52.232;5.170;2023-04-24T11:18:51;23.60;;;21.30;;
71910;SDS011;59783;52.232;5.170;2023-04-24T11:21:19;23.85;;;20.23;;
71910;SDS011;59783;52.232;5.170;2023-04-24T11:23:45;24.85;;;22.35;;
71910;SDS011;59783;52.232;5.170;2023-04-24T11:26:11;21.38;;;19.08;;
71910;SDS011;59783;52.232;5.170;2023-04-24T11:28:37;20.25;;;18.23;;
71910;SDS011;59783;52.232;5.170;2023-04-24T11:33:46;21.33;;;19.13;;
71910;SDS011;59783;52.232;5.170;2023-04-24T11:36:11;21.63;;;19.40;;
71910;SDS011;59783;52.232;5.170;2023-04-24T11:38:38;20.98;;;18.80;;
71910;SDS011;59783;52.232;5.170;2023-04-24T11:41:03;22.95;;;20.65;;
71910;SDS011;59783;52.232;5.170;2023-04-24T11:43:30;21.02;;;18.77;;
71910;SDS011;59783;52.232;5.170;2023-04-24T11:45:55;22.38;;;19.83;;
71910;SDS011;59783;52.232;5.170;2023-04-24T11:48:24;25.10;;;21.67;;
71910;SDS011;59783;52.232;5.170;2023-04-24T11:50:49;23.27;;;20.83;;
71910;SDS011;59783;52.232;5.170;2023-04-24T11:53:15;21.17;;;19.05;;
71910;SDS011;59783;52.232;5.170;2023-04-24T11:55:40;21.10;;;18.83;;
71910;SDS011;59783;52.232;5.170;2023-04-24T11:58:05;20.43;;;18.33;;
71910;SDS011;59783;52.232;5.170;2023-04-24T12:00:31;23.15;;;20.77;;
71910;SDS011;59783;52.232;5.170;2023-04-24T12:03:08;23.15;;;19.40;;
71910;SDS011;59783;52.232;5.170;2023-04-24T12:05:34;22.58;;;20.30;;
71910;SDS011;59783;52.232;5.170;2023-04-24T12:08:00;29.90;;;27.17;;
71910;SDS011;59783;52.232;5.170;2023-04-24T12:10:26;22.02;;;19.77;;
71910;SDS011;59783;52.232;5.170;2023-04-24T12:12:51;22.88;;;20.67;;
71910;SDS011;59783;52.232;5.170;2023-04-24T12:15:17;22.05;;;19.83;;
71910;SDS011;59783;52.232;5.170;2023-04-24T12:17:43;24.13;;;21.70;;
71910;SDS011;59783;52.232;5.170;2023-04-24T12:20:08;28.73;;;26.02;;
71910;SDS011;59783;52.232;5.170;2023-04-24T12:25:09;22.40;;;18.92;;
71910;SDS011;59783;52.232;5.170;2023-04-24T12:27:35;22.20;;;19.88;;
71910;SDS011;59783;52.232;5.170;2023-04-24T12:30:01;24.03;;;21.63;;
71910;SDS011;59783;52.232;5.170;2023-04-24T12:32:26;24.98;;;20.98;;
71910;SDS011;59783;52.232;5.170;2023-04-24T12:34:52;23.38;;;20.17;;
71910;SDS011;59783;52.232;5.170;2023-04-24T12:37:18;29.42;;;20.50;;
71910;SDS011;59783;52.232;5.170;2023-04-24T12:42:27;32.38;;;20.52;;
71910;SDS011;59783;52.232;5.170;2023-04-24T12:44:55;29.05;;;21.83;;
71910;SDS011;59783;52.232;5.170;2023-04-24T12:47:21;29.80;;;22.63;;
71910;SDS011;59783;52.232;5.170;2023-04-24T12:49:46;26.17;;;20.43;;
71910;SDS011;59783;52.232;5.170;2023-04-24T12:52:11;26.03;;;20.30;;
71910;SDS011;59783;52.232;5.170;2023-04-24T12:54:36;28.97;;;20.03;;
71910;SDS011;59783;52.232;5.170;2023-04-24T12:57:01;30.35;;;21.80;;
71910;SDS011;59783;52.232;5.170;2023-04-24T12:59:27;28.27;;;22.70;;
71910;SDS011;59783;52.232;5.170;2023-04-24T13:01:52;29.20;;;21.73;;
71910;SDS011;59783;52.232;5.170;2023-04-24T13:04:17;35.77;;;22.77;;
71910;SDS011;59783;52.232;5.170;2023-04-24T13:06:42;31.33;;;23.67;;
71910;SDS011;59783;52.232;5.170;2023-04-24T13:09:07;31.20;;;21.47;;
71910;SDS011;59783;52.232;5.170;2023-04-24T13:11:32;31.07;;;24.40;;
71910;SDS011;59783;52.232;5.170;2023-04-24T13:13:58;28.93;;;21.80;;
71910;SDS011;59783;52.232;5.170;2023-04-24T13:16:23;28.00;;;20.57;;
71910;SDS011;59783;52.232;5.170;2023-04-24T13:18:48;26.60;;;21.40;;
71910;SDS011;59783;52.232;5.170;2023-04-24T13:21:13;29.50;;;20.90;;
71910;SDS011;59783;52.232;5.170;2023-04-24T13:23:38;32.00;;;25.77;;
71910;SDS011;59783;52.232;5.170;2023-04-24T13:26:04;30.15;;;22.95;;
71910;SDS011;59783;52.232;5.170;2023-04-24T13:28:29;25.13;;;21.07;;
71910;SDS011;59783;52.232;5.170;2023-04-24T13:30:55;29.00;;;20.88;;
71910;SDS011;59783;52.232;5.170;2023-04-24T13:33:20;31.97;;;22.87;;
71910;SDS011;59783;52.232;5.170;2023-04-24T13:35:45;28.03;;;22.00;;
71910;SDS011;59783;52.232;5.170;2023-04-24T13:38:10;29.13;;;22.60;;
71910;SDS011;59783;52.232;5.170;2023-04-24T13:40:35;32.00;;;28.47;;
71910;SDS011;59783;52.232;5.170;2023-04-24T13:43:01;29.20;;;21.47;;
71910;SDS011;59783;52.232;5.170;2023-04-24T13:45:26;29.33;;;23.23;;
71910;SDS011;59783;52.232;5.170;2023-04-24T13:47:52;29.70;;;26.67;;
71910;SDS011;59783;52.232;5.170;2023-04-24T13:50:18;24.45;;;21.90;;
71910;SDS011;59783;52.232;5.170;2023-04-24T13:52:43;27.60;;;21.25;;
71910;SDS011;59783;52.232;5.170;2023-04-24T13:55:09;24.73;;;19.50;;
71910;SDS011;59783;52.232;5.170;2023-04-24T13:57:34;26.37;;;19.83;;
71910;SDS011;59783;52.232;5.170;2023-04-24T13:59:59;24.95;;;19.42;;
71910;SDS011;59783;52.232;5.170;2023-04-24T14:02:26;28.77;;;22.63;;
71910;SDS011;59783;52.232;5.170;2023-04-24T14:04:52;26.05;;;21.45;;
71910;SDS011;59783;52.232;5.170;2023-04-24T14:07:17;33.90;;;22.02;;
71910;SDS011;59783;52.232;5.170;2023-04-24T14:09:42;27.37;;;21.73;;
71910;SDS011;59783;52.232;5.170;2023-04-24T14:12:07;28.43;;;23.13;;
71910;SDS011;59783;52.232;5.170;2023-04-24T14:14:33;33.08;;;25.08;;
71910;SDS011;59783;52.232;5.170;2023-04-24T14:16:58;27.87;;;21.60;;
71910;SDS011;59783;52.232;5.170;2023-04-24T14:19:23;30.37;;;20.53;;
71910;SDS011;59783;52.232;5.170;2023-04-24T14:21:48;28.92;;;19.35;;
71910;SDS011;59783;52.232;5.170;2023-04-24T14:24:14;26.27;;;21.20;;